createdAt,value
2023-03-03T00:00:13.241Z,-2.30
2023-03-03T00:05:18.691Z,-2.20
2023-03-03T00:10:21.478Z,-2.30
2023-03-03T00:15:26.164Z,-2.30
2023-03-03T00:20:40.263Z,-2.40
2023-03-03T00:25:49.104Z,-2.40
2023-03-03T00:30:54.026Z,-2.50
2023-03-03T00:35:57.795Z,-2.70
2023-03-03T00:41:00.495Z,-2.70
2023-03-03T00:46:03.353Z,-2.70
2023-03-03T00:51:28.761Z,-2.60
2023-03-03T00:56:31.860Z,-2.80
2023-03-03T01:01:34.516Z,-2.90
2023-03-03T01:06:37.478Z,-2.70
2023-03-03T01:11:41.496Z,-2.90
2023-03-03T01:16:44.580Z,-2.80
2023-03-03T01:21:47.308Z,-2.80
2023-03-03T01:26:50.110Z,-2.90
2023-03-03T01:31:52.784Z,-2.90
2023-03-03T01:36:55.399Z,-3.00
2023-03-03T01:41:58.340Z,-3.10
2023-03-03T01:47:09.242Z,-3.10
2023-03-03T01:52:34.651Z,-3.10
2023-03-03T01:57:42.081Z,-3.10
2023-03-03T02:02:45.951Z,-3.20
2023-03-03T02:07:49.094Z,-3.30
2023-03-03T02:12:53.947Z,-3.30
2023-03-03T02:18:00.805Z,-3.50
2023-03-03T02:23:12.284Z,-3.50
2023-03-03T02:28:15.464Z,-3.40
2023-03-03T02:33:18.120Z,-3.50
2023-03-03T02:38:47.856Z,-3.40
2023-03-03T02:43:59.206Z,-3.40
2023-03-03T02:49:03.290Z,-3.40
2023-03-03T02:54:06.354Z,-3.30
2023-03-03T02:59:09.796Z,-3.40
2023-03-03T03:04:21.673Z,-3.60
2023-03-03T03:09:26.563Z,-3.60
2023-03-03T03:14:30.606Z,-3.60
2023-03-03T03:19:33.325Z,-3.60
2023-03-03T03:24:38.053Z,-3.60
2023-03-03T03:29:43.995Z,-3.70
2023-03-03T03:34:47.674Z,-3.70
2023-03-03T03:39:50.986Z,-3.80
2023-03-03T03:44:55.190Z,-3.90
2023-03-03T03:49:58.069Z,-3.90
2023-03-03T03:55:01.524Z,-3.80
2023-03-03T04:00:06.782Z,-3.80
2023-03-03T04:05:17.810Z,-3.90
2023-03-03T04:10:20.897Z,-4.00
2023-03-03T04:15:24.523Z,-3.90
2023-03-03T04:20:27.346Z,-4.00
2023-03-03T04:25:31.518Z,-4.00
2023-03-03T04:30:34.697Z,-4.00
2023-03-03T04:35:37.464Z,-4.00
2023-03-03T04:40:43.550Z,-4.10
2023-03-03T04:45:48.261Z,-4.10
2023-03-03T04:50:52.295Z,-4.20
2023-03-03T04:55:55.977Z,-4.20
2023-03-03T05:00:58.954Z,-4.20
2023-03-03T05:06:04.352Z,-4.30
2023-03-03T05:11:07.648Z,-4.40
2023-03-03T05:16:10.401Z,-4.40
2023-03-03T05:21:13.111Z,-4.60
2023-03-03T05:26:15.750Z,-4.50
2023-03-03T05:31:18.408Z,-4.50
2023-03-03T05:36:21.151Z,-4.50
2023-03-03T05:41:24.087Z,-4.70
2023-03-03T05:46:26.745Z,-4.60
2023-03-03T05:51:29.513Z,-4.70
2023-03-03T05:56:32.118Z,-4.60
2023-03-03T06:01:34.830Z,-4.20
2023-03-03T06:06:37.658Z,-4.20
2023-03-03T06:11:40.259Z,-3.90
2023-03-03T06:16:43.042Z,-3.80
2023-03-03T06:21:45.850Z,-3.50
2023-03-03T06:26:48.603Z,-3.40
2023-03-03T06:31:51.634Z,-3.20
2023-03-03T06:36:54.484Z,-3.00
2023-03-03T06:41:57.116Z,-2.70
2023-03-03T06:47:01.892Z,-2.50
2023-03-03T06:52:14.729Z,-2.20
2023-03-03T06:57:28.278Z,-2.20
2023-03-03T07:02:31.540Z,-2.00
2023-03-03T07:07:34.245Z,-2.00
2023-03-03T07:12:36.869Z,-1.70
2023-03-03T07:17:45.814Z,-1.50
2023-03-03T07:22:48.712Z,-1.10
2023-03-03T07:27:52.698Z,-0.90
2023-03-03T07:32:58.430Z,-0.80
2023-03-03T07:38:01.546Z,0.20
2023-03-03T07:43:47.920Z,0.50
2023-03-03T07:48:52.585Z,0.50
2023-03-03T07:54:14.133Z,1.90
2023-03-03T07:59:25.056Z,2.30
2023-03-03T08:04:42.218Z,2.10
2023-03-03T08:09:47.944Z,2.30
2023-03-03T08:14:54.461Z,2.80
2023-03-03T08:19:57.471Z,2.80
2023-03-03T08:25:00.247Z,2.70
2023-03-03T08:30:03.065Z,3.40
2023-03-03T08:35:06.207Z,3.10
2023-03-03T08:40:09.727Z,3.60
2023-03-03T08:45:12.513Z,3.00
2023-03-03T08:50:17.306Z,2.80
2023-03-03T08:55:20.174Z,3.00
2023-03-03T09:00:23.190Z,3.20
2023-03-03T09:05:26.797Z,2.80
2023-03-03T09:10:32.084Z,2.90
2023-03-03T09:15:37.926Z,2.70
2023-03-03T09:20:43.272Z,2.60
2023-03-03T09:25:47.281Z,2.80
2023-03-03T09:30:51.349Z,2.90
2023-03-03T09:36:15.429Z,2.90
2023-03-03T09:41:50.760Z,3.10
2023-03-03T09:47:28.993Z,3.00
2023-03-03T09:52:56.947Z,3.50
2023-03-03T09:58:11.928Z,3.30
2023-03-03T10:04:05.750Z,3.20
2023-03-03T10:09:26.834Z,2.70
2023-03-03T10:14:59.058Z,2.80
2023-03-03T10:20:47.607Z,2.60
2023-03-03T10:26:44.716Z,2.50
2023-03-03T10:32:00.280Z,2.60
2023-03-03T10:37:30.527Z,2.60
2023-03-03T10:43:08.150Z,2.50
2023-03-03T10:48:18.261Z,1.90
2023-03-03T10:53:41.308Z,1.90
2023-03-03T10:59:05.756Z,2.20
2023-03-03T11:04:23.879Z,2.50
2023-03-03T11:09:45.088Z,2.40
2023-03-03T11:14:56.833Z,2.30
2023-03-03T11:20:05.268Z,2.40
2023-03-03T11:25:20.700Z,2.40
2023-03-03T11:30:40.138Z,2.00
2023-03-03T11:36:15.127Z,2.10
2023-03-03T11:41:34.441Z,2.10
2023-03-03T11:47:14.339Z,2.10
2023-03-03T11:52:37.491Z,2.00
2023-03-03T11:58:31.957Z,1.80
2023-03-03T12:03:42.306Z,1.90
2023-03-03T12:09:15.563Z,1.90
2023-03-03T12:14:50.921Z,2.00
2023-03-03T12:20:15.353Z,2.10
2023-03-03T12:25:47.289Z,1.90
2023-03-03T12:31:02.480Z,1.90
2023-03-03T12:36:36.208Z,2.10
2023-03-03T12:42:03.869Z,1.90
2023-03-03T12:47:16.009Z,1.80
2023-03-03T12:52:32.899Z,1.60
2023-03-03T12:57:35.668Z,1.30
2023-03-03T13:03:14.088Z,1.30
2023-03-03T13:08:23.875Z,1.30
2023-03-03T13:13:51.824Z,1.20
2023-03-03T13:19:12.289Z,1.20
2023-03-03T13:24:26.283Z,1.20
2023-03-03T13:29:40.907Z,1.20
2023-03-03T13:35:02.039Z,1.30
2023-03-03T13:40:14.080Z,1.20
2023-03-03T13:45:30.498Z,1.10
2023-03-03T13:50:57.412Z,1.20
2023-03-03T13:56:00.215Z,1.10
2023-03-03T14:01:21.220Z,0.90
2023-03-03T14:06:30.118Z,0.80
2023-03-03T14:11:48.191Z,0.70
2023-03-03T14:17:03.895Z,0.60
2023-03-03T14:22:35.655Z,0.60
2023-03-03T14:27:42.135Z,0.60
2023-03-03T14:33:08.426Z,0.70
2023-03-03T14:38:47.941Z,0.70
2023-03-03T14:44:00.513Z,0.60
2023-03-03T14:49:06.150Z,0.50
2023-03-03T14:54:30.571Z,0.50
2023-03-03T14:59:33.653Z,0.60
2023-03-03T15:04:36.438Z,0.60
2023-03-03T15:09:48.322Z,0.60
2023-03-03T15:15:05.828Z,0.50
2023-03-03T15:20:32.611Z,0.60
2023-03-03T15:25:43.687Z,0.60
2023-03-03T15:30:49.753Z,0.60
2023-03-03T15:36:11.207Z,0.60
2023-03-03T15:41:26.027Z,0.70
2023-03-03T15:47:01.834Z,0.60
2023-03-03T15:52:23.771Z,0.70
2023-03-03T15:58:04.000Z,0.60
2023-03-03T16:03:15.524Z,0.70
2023-03-03T16:08:22.329Z,0.60
2023-03-03T16:13:43.644Z,0.50
2023-03-03T16:18:58.712Z,0.50
2023-03-03T16:24:27.652Z,0.60
2023-03-03T16:29:48.490Z,0.50
2023-03-03T16:35:00.738Z,0.50
2023-03-03T16:40:25.459Z,0.50
2023-03-03T16:45:35.672Z,0.50
2023-03-03T16:50:55.165Z,0.60
2023-03-03T16:56:37.046Z,0.50
2023-03-03T17:02:08.906Z,0.50
2023-03-03T17:07:35.292Z,0.50
2023-03-03T17:12:59.163Z,0.50
2023-03-03T17:18:39.328Z,0.50
2023-03-03T17:23:53.907Z,0.50
2023-03-03T17:29:41.799Z,0.50
2023-03-03T17:35:33.918Z,0.40
2023-03-03T17:40:56.903Z,0.40
2023-03-03T17:46:05.068Z,0.40
2023-03-03T17:51:10.952Z,0.40
2023-03-03T17:56:44.235Z,0.30
2023-03-03T18:02:23.087Z,0.40
2023-03-03T18:07:46.717Z,0.40
2023-03-03T18:13:24.868Z,0.40
2023-03-03T18:19:06.109Z,0.40
2023-03-03T18:24:30.213Z,0.30
2023-03-03T18:29:32.989Z,0.40
2023-03-03T18:34:40.907Z,0.30
2023-03-03T18:39:46.991Z,0.30
2023-03-03T18:44:49.984Z,0.30
2023-03-03T18:50:11.373Z,0.30
2023-03-03T18:55:14.044Z,0.30
2023-03-03T19:00:30.420Z,0.30
2023-03-03T19:05:50.534Z,0.30
2023-03-03T19:10:57.532Z,0.30
2023-03-03T19:16:06.957Z,0.30
2023-03-03T19:21:34.303Z,0.30
2023-03-03T19:26:55.285Z,0.20
2023-03-03T19:32:35.605Z,0.20
2023-03-03T19:37:57.187Z,0.20
2023-03-03T19:43:14.967Z,0.20
2023-03-03T19:48:43.990Z,0.20
2023-03-03T19:54:10.494Z,0.20
2023-03-03T19:59:21.024Z,0.20
2023-03-03T20:04:45.642Z,0.20
2023-03-03T20:10:00.382Z,0.20
2023-03-03T20:15:10.131Z,0.20
2023-03-03T20:20:28.240Z,0.20
2023-03-03T20:25:54.160Z,0.20
2023-03-03T20:31:24.182Z,0.20
2023-03-03T20:36:36.460Z,0.10
2023-03-03T20:41:50.243Z,0.10
2023-03-03T20:47:04.912Z,0.10
2023-03-03T20:52:42.603Z,0.00
2023-03-03T20:57:49.516Z,0.00
2023-03-03T21:03:27.420Z,0.10
2023-03-03T21:08:53.506Z,0.10
2023-03-03T21:13:56.633Z,0.10
2023-03-03T21:19:06.195Z,0.10
2023-03-03T21:24:20.041Z,0.10
2023-03-03T21:29:35.680Z,0.10
2023-03-03T21:34:41.335Z,0.10
2023-03-03T21:39:44.908Z,0.10
2023-03-03T21:44:50.115Z,0.10
2023-03-03T21:49:53.453Z,0.10
2023-03-03T21:54:56.240Z,0.10
2023-03-03T21:59:58.888Z,0.10
2023-03-03T22:05:03.962Z,0.00
2023-03-03T22:10:07.947Z,0.00
2023-03-03T22:15:11.203Z,-0.10
2023-03-03T22:20:17.696Z,0.00
2023-03-03T22:25:20.420Z,0.00
2023-03-03T22:30:23.094Z,0.00
2023-03-03T22:35:25.882Z,0.00
2023-03-03T22:40:28.534Z,-0.10
2023-03-03T22:45:31.141Z,-0.10
2023-03-03T22:50:33.785Z,0.00
2023-03-03T22:55:37.446Z,-0.10
2023-03-03T23:00:41.963Z,-0.10
2023-03-03T23:05:44.656Z,-0.20
2023-03-03T23:10:47.784Z,-0.20
2023-03-03T23:15:50.506Z,-0.10
2023-03-03T23:20:53.247Z,-0.10
2023-03-03T23:25:55.817Z,-0.10
2023-03-03T23:30:58.767Z,-0.20
2023-03-03T23:36:02.023Z,-0.20
2023-03-03T23:41:04.935Z,-0.20
2023-03-03T23:46:07.523Z,-0.20
2023-03-03T23:51:10.097Z,-0.20
2023-03-03T23:56:12.740Z,-0.10
